sensor_id;sensor_type;location;lat;lon;timestamp;pressure;altitude;pressure_sealevel;temperature;humidity
27712;BME280;2377;51.734;8.950;2022-09-12T00:01:47;98111.66;;;12.75;81.58
27712;BME280;2377;51.734;8.950;2022-09-12T00:04:15;98111.88;;;12.74;81.40
27712;BME280;2377;51.734;8.950;2022-09-12T00:06:42;98112.88;;;12.73;80.86
27712;BME280;2377;51.734;8.950;2022-09-12T00:09:12;98120.78;;;12.71;80.89
27712;BME280;2377;51.734;8.950;2022-09-12T00:11:43;98117.66;;;12.69;81.37
27712;BME280;2377;51.734;8.950;2022-09-12T00:14:14;98114.50;;;12.67;80.95
27712;BME280;2377;51.734;8.950;2022-09-12T00:16:43;98110.59;;;12.64;80.96
27712;BME280;2377;51.734;8.950;2022-09-12T00:19:11;98104.91;;;12.62;80.91
27712;BME280;2377;51.734;8.950;2022-09-12T00:21:39;98100.78;;;12.61;81.35
27712;BME280;2377;51.734;8.950;2022-09-12T00:24:08;98103.94;;;12.63;81.80
27712;BME280;2377;51.734;8.950;2022-09-12T00:26:35;98106.50;;;12.63;80.89
27712;BME280;2377;51.734;8.950;2022-09-12T00:29:04;98100.59;;;12.63;81.27
27712;BME280;2377;51.734;8.950;2022-09-12T00:31:31;98100.59;;;12.63;81.43
27712;BME280;2377;51.734;8.950;2022-09-12T00:33:59;98096.44;;;12.62;81.51
27712;BME280;2377;51.734;8.950;2022-09-12T00:36:28;98095.66;;;12.61;81.47
27712;BME280;2377;51.734;8.950;2022-09-12T00:38:56;98102.78;;;12.59;81.59
27712;BME280;2377;51.734;8.950;2022-09-12T00:41:27;98096.88;;;12.59;81.15
27712;BME280;2377;51.734;8.950;2022-09-12T00:43:56;98094.31;;;12.59;80.89
27712;BME280;2377;51.734;8.950;2022-09-12T00:46:35;98088.06;;;12.55;80.93
27712;BME280;2377;51.734;8.950;2022-09-12T00:49:11;98088.50;;;12.52;81.18
27712;BME280;2377;51.734;8.950;2022-09-12T00:51:43;98089.28;;;12.52;81.49
27712;BME280;2377;51.734;8.950;2022-09-12T00:54:18;98087.94;;;12.50;81.49
27712;BME280;2377;51.734;8.950;2022-09-12T00:56:52;98072.19;;;12.46;81.28
27712;BME280;2377;51.734;8.950;2022-09-12T00:59:26;98076.75;;;12.44;81.39
27712;BME280;2377;51.734;8.950;2022-09-12T01:01:57;98079.53;;;12.42;81.73
27712;BME280;2377;51.734;8.950;2022-09-12T01:04:26;98073.84;;;12.40;81.70
27712;BME280;2377;51.734;8.950;2022-09-12T01:06:56;98070.16;;;12.36;81.14
27712;BME280;2377;51.734;8.950;2022-09-12T01:09:24;98067.00;;;12.34;81.70
27712;BME280;2377;51.734;8.950;2022-09-12T01:11:52;98066.03;;;12.35;81.79
27712;BME280;2377;51.734;8.950;2022-09-12T01:14:21;98065.25;;;12.35;81.50
27712;BME280;2377;51.734;8.950;2022-09-12T01:16:50;98072.13;;;12.34;81.69
27712;BME280;2377;51.734;8.950;2022-09-12T01:20:04;98070.47;;;12.28;81.50
27712;BME280;2377;51.734;8.950;2022-09-12T01:23:11;98065.75;;;12.25;81.88
27712;BME280;2377;51.734;8.950;2022-09-12T01:25:59;98070.09;;;12.24;82.28
27712;BME280;2377;51.734;8.950;2022-09-12T01:29:04;98066.19;;;12.22;82.64
27712;BME280;2377;51.734;8.950;2022-09-12T01:31:48;98067.19;;;12.21;82.18
27712;BME280;2377;51.734;8.950;2022-09-12T01:34:25;98068.19;;;12.20;82.40
27712;BME280;2377;51.734;8.950;2022-09-12T01:37:07;98069.41;;;12.17;82.70
27712;BME280;2377;51.734;8.950;2022-09-12T01:39:44;98067.03;;;12.16;82.48
27712;BME280;2377;51.734;8.950;2022-09-12T01:42:27;98065.91;;;12.12;81.95
27712;BME280;2377;51.734;8.950;2022-09-12T01:45:08;98066.34;;;12.09;81.93
27712;BME280;2377;51.734;8.950;2022-09-12T01:47:45;98059.28;;;12.04;81.53
27712;BME280;2377;51.734;8.950;2022-09-12T01:50:18;98068.19;;;12.01;82.06
27712;BME280;2377;51.734;8.950;2022-09-12T01:52:51;98061.50;;;12.00;81.97
27712;BME280;2377;51.734;8.950;2022-09-12T01:55:25;98061.72;;;11.99;81.86
27712;BME280;2377;51.734;8.950;2022-09-12T01:58:01;98060.94;;;11.98;82.36
27712;BME280;2377;51.734;8.950;2022-09-12T02:00:33;98056.03;;;11.97;82.24
27712;BME280;2377;51.734;8.950;2022-09-12T02:03:12;98052.69;;;11.96;82.38
27712;BME280;2377;51.734;8.950;2022-09-12T02:05:46;98051.13;;;11.95;82.33
27712;BME280;2377;51.734;8.950;2022-09-12T02:08:19;98048.00;;;11.93;82.60
27712;BME280;2377;51.734;8.950;2022-09-12T02:10:55;98050.56;;;11.93;82.58
27712;BME280;2377;51.734;8.950;2022-09-12T02:13:30;98047.00;;;11.94;82.90
27712;BME280;2377;51.734;8.950;2022-09-12T02:16:06;98042.88;;;11.93;82.85
27712;BME280;2377;51.734;8.950;2022-09-12T02:18:39;98032.63;;;11.93;82.93
27712;BME280;2377;51.734;8.950;2022-09-12T02:21:10;98038.19;;;11.90;83.51
27712;BME280;2377;51.734;8.950;2022-09-12T02:23:42;98038.19;;;11.90;83.29
27712;BME280;2377;51.734;8.950;2022-09-12T02:26:18;98037.38;;;11.90;83.38
27712;BME280;2377;51.734;8.950;2022-09-12T02:28:47;98040.75;;;11.90;82.89
27712;BME280;2377;51.734;8.950;2022-09-12T02:31:22;98033.28;;;11.89;82.99
27712;BME280;2377;51.734;8.950;2022-09-12T02:34:07;98037.63;;;11.88;83.23
27712;BME280;2377;51.734;8.950;2022-09-12T02:36:47;98033.47;;;11.87;83.34
27712;BME280;2377;51.734;8.950;2022-09-12T02:39:16;98043.13;;;11.85;83.44
27712;BME280;2377;51.734;8.950;2022-09-12T02:41:45;98040.78;;;11.83;83.20
27712;BME280;2377;51.734;8.950;2022-09-12T02:44:13;98033.09;;;11.83;83.13
27712;BME280;2377;51.734;8.950;2022-09-12T02:46:45;98029.97;;;11.81;82.92
27712;BME280;2377;51.734;8.950;2022-09-12T02:49:15;98022.28;;;11.81;83.24
27712;BME280;2377;51.734;8.950;2022-09-12T02:51:43;98025.06;;;11.80;83.33
27712;BME280;2377;51.734;8.950;2022-09-12T02:54:12;98021.94;;;11.78;83.15
27712;BME280;2377;51.734;8.950;2022-09-12T02:56:43;98021.59;;;11.74;82.78
27712;BME280;2377;51.734;8.950;2022-09-12T02:59:16;98015.31;;;11.70;83.62
27712;BME280;2377;51.734;8.950;2022-09-12T03:02:15;98022.66;;;11.67;83.77
27712;BME280;2377;51.734;8.950;2022-09-12T03:05:15;98019.72;;;11.63;83.36
27712;BME280;2377;51.734;8.950;2022-09-12T03:08:27;98030.19;;;11.61;83.48
27712;BME280;2377;51.734;8.950;2022-09-12T03:11:21;98023.50;;;11.60;83.66
27712;BME280;2377;51.734;8.950;2022-09-12T03:14:01;98021.97;;;11.59;83.36
27712;BME280;2377;51.734;8.950;2022-09-12T03:16:41;98027.06;;;11.59;83.53
27712;BME280;2377;51.734;8.950;2022-09-12T03:19:23;98021.16;;;11.59;83.44
27712;BME280;2377;51.734;8.950;2022-09-12T03:22:02;98019.59;;;11.58;83.28
27712;BME280;2377;51.734;8.950;2022-09-12T03:24:40;98021.59;;;11.56;83.29
27712;BME280;2377;51.734;8.950;2022-09-12T03:27:17;98018.44;;;11.54;82.71
27712;BME280;2377;51.734;8.950;2022-09-12T03:29:47;98023.00;;;11.52;83.26
27712;BME280;2377;51.734;8.950;2022-09-12T03:32:16;98024.00;;;11.51;83.12
27712;BME280;2377;51.734;8.950;2022-09-12T03:34:43;98021.66;;;11.49;83.04
27712;BME280;2377;51.734;8.950;2022-09-12T03:37:11;98025.22;;;11.48;82.95
27712;BME280;2377;51.734;8.950;2022-09-12T03:39:38;98027.19;;;11.46;83.01
27712;BME280;2377;51.734;8.950;2022-09-12T03:42:06;98018.75;;;11.46;83.42
27712;BME280;2377;51.734;8.950;2022-09-12T03:44:33;98020.50;;;11.45;83.81
27712;BME280;2377;51.734;8.950;2022-09-12T03:47:00;98014.59;;;11.45;84.33
27712;BME280;2377;51.734;8.950;2022-09-12T03:49:27;98011.06;;;11.46;84.45
27712;BME280;2377;51.734;8.950;2022-09-12T03:51:54;98008.84;;;11.49;84.67
27712;BME280;2377;51.734;8.950;2022-09-12T03:54:23;98014.53;;;11.51;84.59
27712;BME280;2377;51.734;8.950;2022-09-12T03:56:50;98009.41;;;11.51;84.86
27712;BME280;2377;51.734;8.950;2022-09-12T03:59:17;98005.31;;;11.50;84.59
27712;BME280;2377;51.734;8.950;2022-09-12T04:01:44;98006.88;;;11.51;84.68
27712;BME280;2377;51.734;8.950;2022-09-12T04:04:11;98014.34;;;11.53;84.56
27712;BME280;2377;51.734;8.950;2022-09-12T04:06:38;98013.00;;;11.50;84.83
27712;BME280;2377;51.734;8.950;2022-09-12T04:09:06;98022.09;;;11.46;85.30
27712;BME280;2377;51.734;8.950;2022-09-12T04:11:35;98009.91;;;11.41;85.24
27712;BME280;2377;51.734;8.950;2022-09-12T04:14:02;98016.81;;;11.41;85.04
27712;BME280;2377;51.734;8.950;2022-09-12T04:16:29;98014.25;;;11.41;84.94
27712;BME280;2377;51.734;8.950;2022-09-12T04:18:57;98007.16;;;11.43;84.89
27712;BME280;2377;51.734;8.950;2022-09-12T04:21:24;98009.91;;;11.41;85.01
27712;BME280;2377;51.734;8.950;2022-09-12T04:23:51;98013.25;;;11.42;84.92
27712;BME280;2377;51.734;8.950;2022-09-12T04:26:19;98011.91;;;11.39;84.82
27712;BME280;2377;51.734;8.950;2022-09-12T04:28:52;98011.31;;;11.37;84.50
27712;BME280;2377;51.734;8.950;2022-09-12T04:31:23;98019.22;;;11.36;84.52
27712;BME280;2377;51.734;8.950;2022-09-12T04:33:53;98021.00;;;11.35;84.72
27712;BME280;2377;51.734;8.950;2022-09-12T04:36:21;98020.22;;;11.35;85.05
27712;BME280;2377;51.734;8.950;2022-09-12T04:38:49;98023.34;;;11.37;84.83
27712;BME280;2377;51.734;8.950;2022-09-12T04:41:19;98025.91;;;11.37;84.92
27712;BME280;2377;51.734;8.950;2022-09-12T04:43:52;98020.78;;;11.37;85.04
27712;BME280;2377;51.734;8.950;2022-09-12T04:46:20;98021.78;;;11.36;84.70
27712;BME280;2377;51.734;8.950;2022-09-12T04:48:48;98020.22;;;11.35;84.88
27712;BME280;2377;51.734;8.950;2022-09-12T04:51:20;98021.22;;;11.34;85.17
27712;BME280;2377;51.734;8.950;2022-09-12T04:53:49;98023.78;;;11.34;85.09
27712;BME280;2377;51.734;8.950;2022-09-12T04:56:18;98026.53;;;11.32;85.24
27712;BME280;2377;51.734;8.950;2022-09-12T04:58:45;98020.66;;;11.32;85.34
27712;BME280;2377;51.734;8.950;2022-09-12T05:01:17;98019.63;;;11.33;85.61
27712;BME280;2377;51.734;8.950;2022-09-12T05:03:46;98018.44;;;11.35;85.55
27712;BME280;2377;51.734;8.950;2022-09-12T05:06:16;98016.09;;;11.34;85.68
27712;BME280;2377;51.734;8.950;2022-09-12T05:08:44;98012.19;;;11.31;85.54
27712;BME280;2377;51.734;8.950;2022-09-12T05:11:14;98007.47;;;11.28;86.21
27712;BME280;2377;51.734;8.950;2022-09-12T05:13:42;98008.09;;;11.24;86.34
27712;BME280;2377;51.734;8.950;2022-09-12T05:16:13;98007.13;;;11.25;86.53
27712;BME280;2377;51.734;8.950;2022-09-12T05:18:43;98007.72;;;11.27;86.36
27712;BME280;2377;51.734;8.950;2022-09-12T05:21:17;98011.63;;;11.29;86.32
27712;BME280;2377;51.734;8.950;2022-09-12T05:23:45;98006.84;;;11.33;86.44
27712;BME280;2377;51.734;8.950;2022-09-12T05:26:15;98016.69;;;11.36;86.61
27712;BME280;2377;51.734;8.950;2022-09-12T05:28:43;98016.25;;;11.39;86.58
27712;BME280;2377;51.734;8.950;2022-09-12T05:31:13;98015.03;;;11.41;86.45
27712;BME280;2377;51.734;8.950;2022-09-12T05:33:44;98018.94;;;11.44;86.41
27712;BME280;2377;51.734;8.950;2022-09-12T05:36:14;98024.63;;;11.46;86.51
27712;BME280;2377;51.734;8.950;2022-09-12T05:38:42;98018.50;;;11.47;86.31
27712;BME280;2377;51.734;8.950;2022-09-12T05:41:12;98015.13;;;11.53;86.25
27712;BME280;2377;51.734;8.950;2022-09-12T05:43:41;98018.00;;;11.57;86.33
27712;BME280;2377;51.734;8.950;2022-09-12T05:46:11;98017.38;;;11.61;86.68
27712;BME280;2377;51.734;8.950;2022-09-12T05:48:43;98017.53;;;11.67;87.24
27712;BME280;2377;51.734;8.950;2022-09-12T05:51:13;98020.00;;;11.73;87.05
27712;BME280;2377;51.734;8.950;2022-09-12T05:53:45;98016.81;;;11.78;87.60
27712;BME280;2377;51.734;8.950;2022-09-12T05:56:15;98022.38;;;11.75;88.92
27712;BME280;2377;51.734;8.950;2022-09-12T05:58:49;98026.28;;;11.77;89.13
27712;BME280;2377;51.734;8.950;2022-09-12T06:01:18;98025.63;;;11.82;89.09
27712;BME280;2377;51.734;8.950;2022-09-12T06:03:50;98022.03;;;11.90;88.91
27712;BME280;2377;51.734;8.950;2022-09-12T06:06:20;98024.31;;;11.98;89.18
27712;BME280;2377;51.734;8.950;2022-09-12T06:08:50;98025.78;;;12.05;89.39
27712;BME280;2377;51.734;8.950;2022-09-12T06:11:20;98019.56;;;12.13;89.20
27712;BME280;2377;51.734;8.950;2022-09-12T06:13:48;98020.06;;;12.22;89.67
27712;BME280;2377;51.734;8.950;2022-09-12T06:16:19;98023.09;;;12.31;89.73
27712;BME280;2377;51.734;8.950;2022-09-12T06:18:49;98017.00;;;12.43;94.38
27712;BME280;2377;51.734;8.950;2022-09-12T06:21:19;98020.81;;;12.53;93.31
27712;BME280;2377;51.734;8.950;2022-09-12T06:23:47;98018.72;;;12.61;92.74
27712;BME280;2377;51.734;8.950;2022-09-12T06:26:16;98018.19;;;12.71;92.27
27712;BME280;2377;51.734;8.950;2022-09-12T06:28:46;98015.28;;;12.79;92.36
27712;BME280;2377;51.734;8.950;2022-09-12T06:31:16;98018.09;;;12.89;92.33
27712;BME280;2377;51.734;8.950;2022-09-12T06:33:48;98017.00;;;12.97;93.14
27712;BME280;2377;51.734;8.950;2022-09-12T06:36:21;98020.00;;;13.06;92.78
27712;BME280;2377;51.734;8.950;2022-09-12T06:38:52;98011.53;;;13.17;94.36
27712;BME280;2377;51.734;8.950;2022-09-12T06:41:21;98009.41;;;13.26;95.13
27712;BME280;2377;51.734;8.950;2022-09-12T06:43:49;98010.91;;;13.34;94.77
27712;BME280;2377;51.734;8.950;2022-09-12T06:46:16;98004.41;;;13.43;94.63
27712;BME280;2377;51.734;8.950;2022-09-12T06:48:43;98008.16;;;13.52;95.33
27712;BME280;2377;51.734;8.950;2022-09-12T06:51:14;98001.69;;;13.61;95.49
27712;BME280;2377;51.734;8.950;2022-09-12T06:53:43;98010.59;;;13.70;95.25
27712;BME280;2377;51.734;8.950;2022-09-12T06:56:13;98010.25;;;13.79;95.32
27712;BME280;2377;51.734;8.950;2022-09-12T06:58:42;98003.19;;;13.86;95.22
27712;BME280;2377;51.734;8.950;2022-09-12T07:01:12;98000.81;;;13.96;96.38
27712;BME280;2377;51.734;8.950;2022-09-12T07:03:41;97999.66;;;14.04;95.98
27712;BME280;2377;51.734;8.950;2022-09-12T07:06:12;97997.50;;;14.12;96.89
27712;BME280;2377;51.734;8.950;2022-09-12T07:08:40;97998.47;;;14.23;96.75
27712;BME280;2377;51.734;8.950;2022-09-12T07:11:10;97998.09;;;14.31;96.53
27712;BME280;2377;51.734;8.950;2022-09-12T07:13:38;98000.03;;;14.41;96.03
27712;BME280;2377;51.734;8.950;2022-09-12T07:16:06;98004.28;;;14.47;96.69
27712;BME280;2377;51.734;8.950;2022-09-12T07:18:35;97998.53;;;14.57;96.80
27712;BME280;2377;51.734;8.950;2022-09-12T07:21:08;98003.84;;;14.67;96.61
27712;BME280;2377;51.734;8.950;2022-09-12T07:23:37;97996.53;;;14.76;96.84
27712;BME280;2377;51.734;8.950;2022-09-12T07:26:05;97989.25;;;14.90;96.44
27712;BME280;2377;51.734;8.950;2022-09-12T07:28:33;97993.56;;;15.01;96.32
27712;BME280;2377;51.734;8.950;2022-09-12T07:31:06;97994.47;;;15.12;96.47
27712;BME280;2377;51.734;8.950;2022-09-12T07:33:34;97991.00;;;15.23;95.53
27712;BME280;2377;51.734;8.950;2022-09-12T07:36:03;97992.22;;;15.37;95.53
27712;BME280;2377;51.734;8.950;2022-09-12T07:38:31;97994.13;;;15.47;95.55
27712;BME280;2377;51.734;8.950;2022-09-12T07:40:59;97997.91;;;15.61;95.14
27712;BME280;2377;51.734;8.950;2022-09-12T07:43:27;97996.06;;;15.74;95.11
27712;BME280;2377;51.734;8.950;2022-09-12T07:45:55;97998.50;;;15.85;93.77
27712;BME280;2377;51.734;8.950;2022-09-12T07:48:22;97998.59;;;15.96;92.53
27712;BME280;2377;51.734;8.950;2022-09-12T07:50:57;97999.50;;;16.06;92.33
27712;BME280;2377;51.734;8.950;2022-09-12T07:53:24;98009.66;;;16.18;91.88
27712;BME280;2377;51.734;8.950;2022-09-12T07:55:55;98002.00;;;16.28;91.41
27712;BME280;2377;51.734;8.950;2022-09-12T07:58:24;98010.91;;;16.43;91.74
27712;BME280;2377;51.734;8.950;2022-09-12T08:00:51;98000.16;;;16.51;91.42
27712;BME280;2377;51.734;8.950;2022-09-12T08:03:18;98002.56;;;16.63;90.79
27712;BME280;2377;51.734;8.950;2022-09-12T08:05:45;98008.03;;;16.72;90.56
27712;BME280;2377;51.734;8.950;2022-09-12T08:08:12;98002.72;;;16.83;90.13
27712;BME280;2377;51.734;8.950;2022-09-12T08:10:40;98004.38;;;16.95;90.01
27712;BME280;2377;51.734;8.950;2022-09-12T08:13:07;98009.59;;;17.05;89.04
27712;BME280;2377;51.734;8.950;2022-09-12T08:15:35;98008.91;;;17.15;87.64
27712;BME280;2377;51.734;8.950;2022-09-12T08:18:02;98002.72;;;17.21;86.79
27712;BME280;2377;51.734;8.950;2022-09-12T08:20:30;98015.94;;;17.29;88.06
27712;BME280;2377;51.734;8.950;2022-09-12T08:22:57;98019.88;;;17.42;86.92
27712;BME280;2377;51.734;8.950;2022-09-12T08:25:24;98026.38;;;17.50;85.86
27712;BME280;2377;51.734;8.950;2022-09-12T08:27:51;98021.00;;;17.62;86.51
27712;BME280;2377;51.734;8.950;2022-09-12T08:30:19;98015.34;;;17.70;84.47
27712;BME280;2377;51.734;8.950;2022-09-12T08:32:47;98015.16;;;17.87;84.34
27712;BME280;2377;51.734;8.950;2022-09-12T08:35:14;98020.63;;;18.01;84.08
27712;BME280;2377;51.734;8.950;2022-09-12T08:37:41;98017.28;;;18.10;83.08
27712;BME280;2377;51.734;8.950;2022-09-12T08:40:14;98022.50;;;18.26;81.19
27712;BME280;2377;51.734;8.950;2022-09-12T08:42:53;98020.69;;;18.26;80.25
27712;BME280;2377;51.734;8.950;2022-09-12T08:45:32;98016.03;;;18.28;80.54
27712;BME280;2377;51.734;8.950;2022-09-12T08:48:08;98017.59;;;18.29;78.93
27712;BME280;2377;51.734;8.950;2022-09-12T08:50:36;98022.78;;;18.40;79.82
27712;BME280;2377;51.734;8.950;2022-09-12T08:53:13;98014.50;;;18.37;78.15
27712;BME280;2377;51.734;8.950;2022-09-12T08:55:44;98018.13;;;18.47;79.77
27712;BME280;2377;51.734;8.950;2022-09-12T08:58:15;98020.47;;;18.53;79.75
27712;BME280;2377;51.734;8.950;2022-09-12T09:00:54;98024.59;;;18.59;79.13
27712;BME280;2377;51.734;8.950;2022-09-12T09:03:59;98024.88;;;18.63;79.33
27712;BME280;2377;51.734;8.950;2022-09-12T09:06:56;98017.09;;;18.73;78.56
27712;BME280;2377;51.734;8.950;2022-09-12T09:09:43;98023.09;;;18.89;78.13
27712;BME280;2377;51.734;8.950;2022-09-12T09:12:24;98026.69;;;19.04;78.95
27712;BME280;2377;51.734;8.950;2022-09-12T09:15:16;98027.69;;;19.18;78.13
27712;BME280;2377;51.734;8.950;2022-09-12T09:17:54;98025.59;;;19.30;76.70
27712;BME280;2377;51.734;8.950;2022-09-12T09:20:33;98030.75;;;19.40;76.89
27712;BME280;2377;51.734;8.950;2022-09-12T09:23:07;98021.63;;;19.53;75.68
27712;BME280;2377;51.734;8.950;2022-09-12T09:25:48;98021.88;;;19.57;75.37
27712;BME280;2377;51.734;8.950;2022-09-12T09:28:22;98021.59;;;19.63;76.67
27712;BME280;2377;51.734;8.950;2022-09-12T09:30:51;98022.34;;;19.74;75.70
27712;BME280;2377;51.734;8.950;2022-09-12T09:33:23;98025.19;;;19.83;76.25
27712;BME280;2377;51.734;8.950;2022-09-12T09:36:09;98019.19;;;19.88;74.06
27712;BME280;2377;51.734;8.950;2022-09-12T09:38:48;98014.22;;;19.91;74.00
27712;BME280;2377;51.734;8.950;2022-09-12T09:41:41;98017.06;;;19.95;73.67
27712;BME280;2377;51.734;8.950;2022-09-12T09:44:12;98006.13;;;20.03;73.56
27712;BME280;2377;51.734;8.950;2022-09-12T09:46:39;98016.16;;;20.15;74.64
27712;BME280;2377;51.734;8.950;2022-09-12T09:49:11;98014.50;;;20.29;74.31
27712;BME280;2377;51.734;8.950;2022-09-12T09:51:42;98010.25;;;20.43;73.73
27712;BME280;2377;51.734;8.950;2022-09-12T09:54:18;98009.44;;;20.53;72.86
27712;BME280;2377;51.734;8.950;2022-09-12T09:56:47;98009.06;;;20.70;73.91
27712;BME280;2377;51.734;8.950;2022-09-12T09:59:17;98016.19;;;20.83;73.18
27712;BME280;2377;51.734;8.950;2022-09-12T10:01:48;98004.16;;;20.93;72.86
27712;BME280;2377;51.734;8.950;2022-09-12T10:04:19;98005.84;;;21.07;73.01
27712;BME280;2377;51.734;8.950;2022-09-12T10:06:51;98002.91;;;21.14;69.82
27712;BME280;2377;51.734;8.950;2022-09-12T10:09:23;98001.09;;;21.15;71.25
27712;BME280;2377;51.734;8.950;2022-09-12T10:11:54;97993.25;;;21.20;69.90
27712;BME280;2377;51.734;8.950;2022-09-12T10:14:34;97992.69;;;21.23;69.98
27712;BME280;2377;51.734;8.950;2022-09-12T10:17:21;97996.06;;;21.23;69.58
27712;BME280;2377;51.734;8.950;2022-09-12T10:19:49;97997.81;;;21.28;68.77
27712;BME280;2377;51.734;8.950;2022-09-12T10:22:22;97992.41;;;21.24;68.81
27712;BME280;2377;51.734;8.950;2022-09-12T10:24:53;97989.19;;;21.32;70.00
27712;BME280;2377;51.734;8.950;2022-09-12T10:27:25;97986.72;;;21.46;69.65
27712;BME280;2377;51.734;8.950;2022-09-12T10:30:00;97992.09;;;21.55;68.24
27712;BME280;2377;51.734;8.950;2022-09-12T10:32:34;97986.03;;;21.60;68.78
27712;BME280;2377;51.734;8.950;2022-09-12T10:35:06;97985.13;;;21.69;69.29
27712;BME280;2377;51.734;8.950;2022-09-12T10:37:53;97983.53;;;21.73;67.17
27712;BME280;2377;51.734;8.950;2022-09-12T10:40:25;97988.72;;;21.73;66.99
27712;BME280;2377;51.734;8.950;2022-09-12T10:42:56;97986.63;;;21.76;66.84
27712;BME280;2377;51.734;8.950;2022-09-12T10:45:28;97988.94;;;21.77;65.40
27712;BME280;2377;51.734;8.950;2022-09-12T10:47:58;97983.53;;;21.73;66.53
27712;BME280;2377;51.734;8.950;2022-09-12T10:50:29;97983.47;;;21.79;67.52
27712;BME280;2377;51.734;8.950;2022-09-12T10:56:08;97974.81;;;22.02;67.22
27712;BME280;2377;51.734;8.950;2022-09-12T10:59:08;97976.97;;;22.14;67.12
27712;BME280;2377;51.734;8.950;2022-09-12T11:01:41;97968.16;;;22.29;67.95
27712;BME280;2377;51.734;8.950;2022-09-12T11:04:47;97972.53;;;22.33;65.00
27712;BME280;2377;51.734;8.950;2022-09-12T11:07:36;97962.03;;;22.38;64.73
27712;BME280;2377;51.734;8.950;2022-09-12T11:10:28;97967.09;;;22.49;66.17
27712;BME280;2377;51.734;8.950;2022-09-12T11:13:16;97961.50;;;22.55;65.54
27712;BME280;2377;51.734;8.950;2022-09-12T11:16:08;97966.13;;;22.58;63.55
27712;BME280;2377;51.734;8.950;2022-09-12T11:19:05;97956.69;;;22.63;64.25
27712;BME280;2377;51.734;8.950;2022-09-12T11:22:02;97965.88;;;22.60;63.39
27712;BME280;2377;51.734;8.950;2022-09-12T11:25:04;97961.41;;;22.61;66.17
27712;BME280;2377;51.734;8.950;2022-09-12T11:30:50;97954.97;;;22.86;64.14
27712;BME280;2377;51.734;8.950;2022-09-12T11:33:39;97952.06;;;22.87;61.46
27712;BME280;2377;51.734;8.950;2022-09-12T11:36:22;97945.13;;;22.83;61.68
27712;BME280;2377;51.734;8.950;2022-09-12T11:39:04;97948.31;;;22.79;60.94
27712;BME280;2377;51.734;8.950;2022-09-12T11:41:39;97947.81;;;22.77;61.51
27712;BME280;2377;51.734;8.950;2022-09-12T11:44:17;97942.34;;;22.79;61.05
27712;BME280;2377;51.734;8.950;2022-09-12T11:46:46;97938.16;;;22.78;60.85
27712;BME280;2377;51.734;8.950;2022-09-12T11:49:27;97949.84;;;22.80;62.83
27712;BME280;2377;51.734;8.950;2022-09-12T11:52:00;97943.00;;;22.85;64.25
27712;BME280;2377;51.734;8.950;2022-09-12T11:54:35;97943.97;;;22.89;63.82
27712;BME280;2377;51.734;8.950;2022-09-12T11:57:13;97932.19;;;22.91;61.45
27712;BME280;2377;51.734;8.950;2022-09-12T11:59:47;97937.91;;;22.93;63.52
27712;BME280;2377;51.734;8.950;2022-09-12T12:02:24;97934.69;;;22.96;59.01
27712;BME280;2377;51.734;8.950;2022-09-12T12:05:18;97940.03;;;22.91;59.74
27712;BME280;2377;51.734;8.950;2022-09-12T12:07:52;97933.16;;;22.95;57.22
27712;BME280;2377;51.734;8.950;2022-09-12T12:10:31;97930.56;;;22.95;56.29
27712;BME280;2377;51.734;8.950;2022-09-12T12:13:01;97933.59;;;23.03;56.43
27712;BME280;2377;51.734;8.950;2022-09-12T12:15:30;97933.00;;;23.06;56.26
27712;BME280;2377;51.734;8.950;2022-09-12T12:18:13;97924.41;;;23.05;56.31
27712;BME280;2377;51.734;8.950;2022-09-12T12:20:42;97923.31;;;23.06;56.77
27712;BME280;2377;51.734;8.950;2022-09-12T12:23:24;97922.66;;;23.00;54.80
27712;BME280;2377;51.734;8.950;2022-09-12T12:25:54;97917.13;;;23.02;55.58
27712;BME280;2377;51.734;8.950;2022-09-12T12:28:57;97921.00;;;23.05;55.23
27712;BME280;2377;51.734;8.950;2022-09-12T12:31:25;97914.53;;;23.16;52.66
27712;BME280;2377;51.734;8.950;2022-09-12T12:34:20;97915.78;;;23.18;53.22
27712;BME280;2377;51.734;8.950;2022-09-12T12:36:48;97915.97;;;23.22;51.83
27712;BME280;2377;51.734;8.950;2022-09-12T12:39:58;97912.28;;;23.23;50.96
27712;BME280;2377;51.734;8.950;2022-09-12T12:43:03;97916.16;;;23.26;50.38
27712;BME280;2377;51.734;8.950;2022-09-12T12:49:08;97902.81;;;23.27;51.08
27712;BME280;2377;51.734;8.950;2022-09-12T12:51:54;97905.72;;;23.26;51.59
27712;BME280;2377;51.734;8.950;2022-09-12T12:54:52;97896.47;;;23.19;52.08
27712;BME280;2377;51.734;8.950;2022-09-12T12:57:40;97898.31;;;23.19;54.50
27712;BME280;2377;51.734;8.950;2022-09-12T13:00:32;97899.25;;;23.23;53.19
27712;BME280;2377;51.734;8.950;2022-09-12T13:03:21;97893.34;;;23.31;51.02
27712;BME280;2377;51.734;8.950;2022-09-12T13:05:59;97886.38;;;23.40;50.91
27712;BME280;2377;51.734;8.950;2022-09-12T13:08:31;97888.59;;;23.47;51.36
27712;BME280;2377;51.734;8.950;2022-09-12T13:11:10;97888.16;;;23.54;53.11
27712;BME280;2377;51.734;8.950;2022-09-12T13:13:48;97880.53;;;23.57;53.61
27712;BME280;2377;51.734;8.950;2022-09-12T13:16:30;97871.94;;;23.57;53.22
27712;BME280;2377;51.734;8.950;2022-09-12T13:19:04;97875.78;;;23.59;53.21
27712;BME280;2377;51.734;8.950;2022-09-12T13:21:33;97867.34;;;23.62;52.51
27712;BME280;2377;51.734;8.950;2022-09-12T13:24:04;97866.66;;;23.71;52.81
27712;BME280;2377;51.734;8.950;2022-09-12T13:26:41;97863.19;;;23.75;52.40
27712;BME280;2377;51.734;8.950;2022-09-12T13:29:14;97865.19;;;23.78;52.08
27712;BME280;2377;51.734;8.950;2022-09-12T13:31:43;97861.50;;;23.79;52.74
27712;BME280;2377;51.734;8.950;2022-09-12T13:34:18;97862.28;;;23.80;52.92
27712;BME280;2377;51.734;8.950;2022-09-12T13:37:18;97853.38;;;23.81;51.29
27712;BME280;2377;51.734;8.950;2022-09-12T13:40:01;97849.06;;;23.76;50.36
27712;BME280;2377;51.734;8.950;2022-09-12T13:42:40;97845.38;;;23.77;53.52
27712;BME280;2377;51.734;8.950;2022-09-12T13:45:16;97834.63;;;23.79;49.22
27712;BME280;2377;51.734;8.950;2022-09-12T13:47:47;97840.97;;;23.87;50.64
27712;BME280;2377;51.734;8.950;2022-09-12T13:50:20;97835.03;;;23.95;49.62
27712;BME280;2377;51.734;8.950;2022-09-12T13:52:54;97828.31;;;24.02;48.96
27712;BME280;2377;51.734;8.950;2022-09-12T13:55:30;97817.88;;;24.02;49.10
27712;BME280;2377;51.734;8.950;2022-09-12T13:58:01;97810.31;;;24.01;49.40